sensor_id;sensor_type;location;lat;lon;timestamp;P1;durP1;ratioP1;P2;durP2;ratioP2
15905;SDS011;8051;50.820;4.884;2022-12-07T00:01:52;47.47;;;38.90;;
15905;SDS011;8051;50.820;4.884;2022-12-07T00:04:20;48.97;;;39.97;;
15905;SDS011;8051;50.820;4.884;2022-12-07T00:06:51;51.80;;;39.50;;
15905;SDS011;8051;50.820;4.884;2022-12-07T00:09:19;50.73;;;40.03;;
15905;SDS011;8051;50.820;4.884;2022-12-07T00:11:48;57.33;;;40.53;;
15905;SDS011;8051;50.820;4.884;2022-12-07T00:14:16;55.53;;;41.43;;
15905;SDS011;8051;50.820;4.884;2022-12-07T00:16:44;56.53;;;40.77;;
15905;SDS011;8051;50.820;4.884;2022-12-07T00:19:12;51.43;;;41.87;;
15905;SDS011;8051;50.820;4.884;2022-12-07T00:21:40;45.80;;;39.63;;
15905;SDS011;8051;50.820;4.884;2022-12-07T00:24:10;49.93;;;38.83;;
15905;SDS011;8051;50.820;4.884;2022-12-07T00:26:39;57.93;;;41.27;;
15905;SDS011;8051;50.820;4.884;2022-12-07T00:29:09;57.33;;;42.17;;
15905;SDS011;8051;50.820;4.884;2022-12-07T00:31:41;60.53;;;44.33;;
15905;SDS011;8051;50.820;4.884;2022-12-07T00:34:11;59.70;;;42.70;;
15905;SDS011;8051;50.820;4.884;2022-12-07T00:36:40;59.93;;;43.87;;
15905;SDS011;8051;50.820;4.884;2022-12-07T00:39:07;62.33;;;42.13;;
15905;SDS011;8051;50.820;4.884;2022-12-07T00:41:36;55.20;;;43.07;;
15905;SDS011;8051;50.820;4.884;2022-12-07T00:44:03;58.73;;;43.83;;
15905;SDS011;8051;50.820;4.884;2022-12-07T00:46:31;58.20;;;44.07;;
15905;SDS011;8051;50.820;4.884;2022-12-07T00:48:59;61.27;;;44.60;;
15905;SDS011;8051;50.820;4.884;2022-12-07T00:51:26;59.10;;;44.07;;
15905;SDS011;8051;50.820;4.884;2022-12-07T00:53:54;58.00;;;41.50;;
15905;SDS011;8051;50.820;4.884;2022-12-07T00:56:24;58.27;;;43.67;;
15905;SDS011;8051;50.820;4.884;2022-12-07T00:58:53;60.10;;;45.07;;
15905;SDS011;8051;50.820;4.884;2022-12-07T01:01:22;59.07;;;44.17;;
15905;SDS011;8051;50.820;4.884;2022-12-07T01:03:51;60.87;;;44.27;;
15905;SDS011;8051;50.820;4.884;2022-12-07T01:06:19;57.17;;;44.73;;
15905;SDS011;8051;50.820;4.884;2022-12-07T01:08:47;64.10;;;46.60;;
15905;SDS011;8051;50.820;4.884;2022-12-07T01:11:16;63.63;;;45.13;;
15905;SDS011;8051;50.820;4.884;2022-12-07T01:13:47;62.07;;;44.10;;
15905;SDS011;8051;50.820;4.884;2022-12-07T01:16:16;54.40;;;43.17;;
15905;SDS011;8051;50.820;4.884;2022-12-07T01:18:45;73.93;;;47.50;;
15905;SDS011;8051;50.820;4.884;2022-12-07T01:21:14;56.93;;;44.30;;
15905;SDS011;8051;50.820;4.884;2022-12-07T01:23:44;61.23;;;46.93;;
15905;SDS011;8051;50.820;4.884;2022-12-07T01:26:12;52.90;;;44.07;;
15905;SDS011;8051;50.820;4.884;2022-12-07T01:28:42;63.23;;;46.77;;
15905;SDS011;8051;50.820;4.884;2022-12-07T01:31:12;56.00;;;44.97;;
15905;SDS011;8051;50.820;4.884;2022-12-07T01:33:41;55.13;;;44.17;;
15905;SDS011;8051;50.820;4.884;2022-12-07T01:36:13;62.97;;;44.30;;
15905;SDS011;8051;50.820;4.884;2022-12-07T01:38:43;51.37;;;44.63;;
15905;SDS011;8051;50.820;4.884;2022-12-07T01:41:12;57.93;;;44.37;;
15905;SDS011;8051;50.820;4.884;2022-12-07T01:44:06;59.20;;;43.50;;
15905;SDS011;8051;50.820;4.884;2022-12-07T01:46:51;60.20;;;47.63;;
15905;SDS011;8051;50.820;4.884;2022-12-07T01:49:28;58.90;;;45.80;;
15905;SDS011;8051;50.820;4.884;2022-12-07T01:52:06;63.33;;;45.67;;
15905;SDS011;8051;50.820;4.884;2022-12-07T01:54:39;61.87;;;46.83;;
15905;SDS011;8051;50.820;4.884;2022-12-07T01:57:08;61.00;;;46.57;;
15905;SDS011;8051;50.820;4.884;2022-12-07T01:59:36;60.50;;;47.07;;
15905;SDS011;8051;50.820;4.884;2022-12-07T02:02:06;62.67;;;47.70;;
15905;SDS011;8051;50.820;4.884;2022-12-07T02:04:38;62.03;;;48.10;;
15905;SDS011;8051;50.820;4.884;2022-12-07T02:07:06;66.37;;;45.77;;
15905;SDS011;8051;50.820;4.884;2022-12-07T02:09:34;74.33;;;49.77;;
15905;SDS011;8051;50.820;4.884;2022-12-07T02:12:01;62.73;;;47.13;;
15905;SDS011;8051;50.820;4.884;2022-12-07T02:14:30;61.37;;;47.20;;
15905;SDS011;8051;50.820;4.884;2022-12-07T02:17:02;63.63;;;47.00;;
15905;SDS011;8051;50.820;4.884;2022-12-07T02:19:50;64.77;;;46.23;;
15905;SDS011;8051;50.820;4.884;2022-12-07T02:22:48;66.83;;;49.37;;
15905;SDS011;8051;50.820;4.884;2022-12-07T02:25:30;77.47;;;49.80;;
15905;SDS011;8051;50.820;4.884;2022-12-07T02:28:12;77.17;;;48.37;;
15905;SDS011;8051;50.820;4.884;2022-12-07T02:30:53;63.43;;;49.03;;
15905;SDS011;8051;50.820;4.884;2022-12-07T02:33:24;61.30;;;47.97;;
15905;SDS011;8051;50.820;4.884;2022-12-07T02:35:55;71.67;;;53.20;;
15905;SDS011;8051;50.820;4.884;2022-12-07T02:38:30;73.10;;;51.93;;
15905;SDS011;8051;50.820;4.884;2022-12-07T02:41:04;71.03;;;51.80;;
15905;SDS011;8051;50.820;4.884;2022-12-07T02:43:38;69.93;;;52.53;;
15905;SDS011;8051;50.820;4.884;2022-12-07T02:46:11;70.63;;;51.40;;
15905;SDS011;8051;50.820;4.884;2022-12-07T02:48:42;81.27;;;54.43;;
15905;SDS011;8051;50.820;4.884;2022-12-07T02:51:10;73.00;;;53.10;;
15905;SDS011;8051;50.820;4.884;2022-12-07T02:53:39;71.03;;;52.33;;
15905;SDS011;8051;50.820;4.884;2022-12-07T02:56:08;69.53;;;52.47;;
15905;SDS011;8051;50.820;4.884;2022-12-07T02:58:46;81.47;;;52.90;;
15905;SDS011;8051;50.820;4.884;2022-12-07T03:01:24;73.27;;;53.57;;
15905;SDS011;8051;50.820;4.884;2022-12-07T03:04:01;77.63;;;53.93;;
15905;SDS011;8051;50.820;4.884;2022-12-07T03:06:36;77.03;;;54.13;;
15905;SDS011;8051;50.820;4.884;2022-12-07T03:09:11;72.83;;;53.03;;
15905;SDS011;8051;50.820;4.884;2022-12-07T03:11:42;75.83;;;55.53;;
15905;SDS011;8051;50.820;4.884;2022-12-07T03:14:14;72.43;;;52.13;;
15905;SDS011;8051;50.820;4.884;2022-12-07T03:16:47;68.57;;;52.13;;
15905;SDS011;8051;50.820;4.884;2022-12-07T03:19:19;70.20;;;51.53;;
15905;SDS011;8051;50.820;4.884;2022-12-07T03:21:49;76.63;;;52.57;;
15905;SDS011;8051;50.820;4.884;2022-12-07T03:24:22;74.50;;;51.93;;
15905;SDS011;8051;50.820;4.884;2022-12-07T03:26:54;84.13;;;53.13;;
15905;SDS011;8051;50.820;4.884;2022-12-07T03:29:27;76.97;;;53.73;;
15905;SDS011;8051;50.820;4.884;2022-12-07T03:31:58;76.80;;;50.20;;
15905;SDS011;8051;50.820;4.884;2022-12-07T03:34:32;74.70;;;52.33;;
15905;SDS011;8051;50.820;4.884;2022-12-07T03:37:05;70.37;;;49.13;;
15905;SDS011;8051;50.820;4.884;2022-12-07T03:39:37;84.23;;;52.57;;
15905;SDS011;8051;50.820;4.884;2022-12-07T03:42:07;74.87;;;53.07;;
15905;SDS011;8051;50.820;4.884;2022-12-07T03:44:36;77.00;;;53.53;;
15905;SDS011;8051;50.820;4.884;2022-12-07T03:47:08;75.47;;;53.77;;
15905;SDS011;8051;50.820;4.884;2022-12-07T03:49:43;79.37;;;55.87;;
15905;SDS011;8051;50.820;4.884;2022-12-07T03:52:17;84.13;;;56.23;;
15905;SDS011;8051;50.820;4.884;2022-12-07T03:54:51;80.17;;;56.33;;
15905;SDS011;8051;50.820;4.884;2022-12-07T03:57:24;81.73;;;53.90;;
15905;SDS011;8051;50.820;4.884;2022-12-07T03:59:54;79.20;;;52.73;;
15905;SDS011;8051;50.820;4.884;2022-12-07T04:02:24;78.87;;;53.87;;
15905;SDS011;8051;50.820;4.884;2022-12-07T04:04:54;84.23;;;56.00;;
15905;SDS011;8051;50.820;4.884;2022-12-07T04:07:22;76.77;;;54.43;;
15905;SDS011;8051;50.820;4.884;2022-12-07T04:09:49;75.03;;;54.30;;
15905;SDS011;8051;50.820;4.884;2022-12-07T04:12:17;78.90;;;56.33;;
15905;SDS011;8051;50.820;4.884;2022-12-07T04:14:44;73.43;;;53.87;;
15905;SDS011;8051;50.820;4.884;2022-12-07T04:17:12;80.40;;;54.83;;
15905;SDS011;8051;50.820;4.884;2022-12-07T04:19:41;83.63;;;53.77;;
15905;SDS011;8051;50.820;4.884;2022-12-07T04:22:08;82.63;;;54.87;;
15905;SDS011;8051;50.820;4.884;2022-12-07T04:24:36;86.00;;;54.77;;
15905;SDS011;8051;50.820;4.884;2022-12-07T04:27:03;77.50;;;53.87;;
15905;SDS011;8051;50.820;4.884;2022-12-07T04:29:31;85.17;;;53.97;;
15905;SDS011;8051;50.820;4.884;2022-12-07T04:31:58;78.73;;;55.23;;
15905;SDS011;8051;50.820;4.884;2022-12-07T04:34:26;77.57;;;52.33;;
15905;SDS011;8051;50.820;4.884;2022-12-07T04:36:55;68.33;;;48.80;;
15905;SDS011;8051;50.820;4.884;2022-12-07T04:39:23;66.40;;;49.03;;
15905;SDS011;8051;50.820;4.884;2022-12-07T04:41:52;79.10;;;53.90;;
15905;SDS011;8051;50.820;4.884;2022-12-07T04:44:20;75.67;;;54.13;;
15905;SDS011;8051;50.820;4.884;2022-12-07T04:46:48;77.80;;;52.73;;
15905;SDS011;8051;50.820;4.884;2022-12-07T04:49:16;84.73;;;52.43;;
15905;SDS011;8051;50.820;4.884;2022-12-07T04:51:44;89.10;;;54.57;;
15905;SDS011;8051;50.820;4.884;2022-12-07T04:54:14;93.73;;;58.07;;
15905;SDS011;8051;50.820;4.884;2022-12-07T04:56:42;98.33;;;58.23;;
15905;SDS011;8051;50.820;4.884;2022-12-07T04:59:10;96.87;;;59.00;;
15905;SDS011;8051;50.820;4.884;2022-12-07T05:01:38;96.70;;;58.73;;
15905;SDS011;8051;50.820;4.884;2022-12-07T05:04:06;108.97;;;59.93;;
15905;SDS011;8051;50.820;4.884;2022-12-07T05:06:34;102.33;;;60.20;;
15905;SDS011;8051;50.820;4.884;2022-12-07T05:09:01;95.70;;;58.30;;
15905;SDS011;8051;50.820;4.884;2022-12-07T05:11:31;104.47;;;63.33;;
15905;SDS011;8051;50.820;4.884;2022-12-07T05:14:06;97.10;;;60.80;;
15905;SDS011;8051;50.820;4.884;2022-12-07T05:16:36;100.43;;;61.13;;
15905;SDS011;8051;50.820;4.884;2022-12-07T05:19:04;99.77;;;62.73;;
15905;SDS011;8051;50.820;4.884;2022-12-07T05:21:31;91.10;;;62.53;;
15905;SDS011;8051;50.820;4.884;2022-12-07T05:23:59;90.87;;;61.40;;
15905;SDS011;8051;50.820;4.884;2022-12-07T05:26:26;94.00;;;62.80;;
15905;SDS011;8051;50.820;4.884;2022-12-07T05:28:56;100.37;;;59.17;;
15905;SDS011;8051;50.820;4.884;2022-12-07T05:31:24;93.10;;;60.83;;
15905;SDS011;8051;50.820;4.884;2022-12-07T05:33:53;97.00;;;60.23;;
15905;SDS011;8051;50.820;4.884;2022-12-07T05:36:20;84.53;;;56.03;;
15905;SDS011;8051;50.820;4.884;2022-12-07T05:38:48;96.27;;;60.23;;
15905;SDS011;8051;50.820;4.884;2022-12-07T05:41:16;101.20;;;59.33;;
15905;SDS011;8051;50.820;4.884;2022-12-07T05:44:04;86.13;;;57.73;;
15905;SDS011;8051;50.820;4.884;2022-12-07T05:46:32;86.27;;;58.63;;
15905;SDS011;8051;50.820;4.884;2022-12-07T05:49:00;82.13;;;56.30;;
15905;SDS011;8051;50.820;4.884;2022-12-07T05:51:27;89.03;;;58.43;;
15905;SDS011;8051;50.820;4.884;2022-12-07T05:53:55;82.87;;;58.57;;
15905;SDS011;8051;50.820;4.884;2022-12-07T05:56:22;94.03;;;59.50;;
15905;SDS011;8051;50.820;4.884;2022-12-07T05:58:51;101.50;;;69.13;;
15905;SDS011;8051;50.820;4.884;2022-12-07T06:01:38;98.97;;;65.30;;
15905;SDS011;8051;50.820;4.884;2022-12-07T06:04:05;113.27;;;67.97;;
15905;SDS011;8051;50.820;4.884;2022-12-07T06:06:33;97.00;;;59.53;;
15905;SDS011;8051;50.820;4.884;2022-12-07T06:09:00;85.03;;;58.53;;
15905;SDS011;8051;50.820;4.884;2022-12-07T06:11:28;84.03;;;56.93;;
15905;SDS011;8051;50.820;4.884;2022-12-07T06:14:12;80.97;;;57.13;;
15905;SDS011;8051;50.820;4.884;2022-12-07T06:16:41;84.00;;;57.67;;
15905;SDS011;8051;50.820;4.884;2022-12-07T06:19:09;84.80;;;60.00;;
15905;SDS011;8051;50.820;4.884;2022-12-07T06:21:36;91.63;;;59.30;;
15905;SDS011;8051;50.820;4.884;2022-12-07T06:24:04;84.00;;;57.27;;
15905;SDS011;8051;50.820;4.884;2022-12-07T06:26:32;87.50;;;57.77;;
15905;SDS011;8051;50.820;4.884;2022-12-07T06:29:00;88.17;;;58.80;;
15905;SDS011;8051;50.820;4.884;2022-12-07T06:31:27;86.97;;;59.67;;
15905;SDS011;8051;50.820;4.884;2022-12-07T06:33:58;102.53;;;58.83;;
15905;SDS011;8051;50.820;4.884;2022-12-07T06:36:26;91.57;;;58.10;;
15905;SDS011;8051;50.820;4.884;2022-12-07T06:38:54;79.43;;;56.27;;
15905;SDS011;8051;50.820;4.884;2022-12-07T06:41:21;82.23;;;59.50;;
15905;SDS011;8051;50.820;4.884;2022-12-07T06:43:49;89.90;;;62.27;;
15905;SDS011;8051;50.820;4.884;2022-12-07T06:46:17;94.50;;;61.83;;
15905;SDS011;8051;50.820;4.884;2022-12-07T06:48:45;89.93;;;59.30;;
15905;SDS011;8051;50.820;4.884;2022-12-07T06:51:14;90.30;;;60.70;;
15905;SDS011;8051;50.820;4.884;2022-12-07T06:53:41;84.73;;;58.50;;
15905;SDS011;8051;50.820;4.884;2022-12-07T06:56:09;76.53;;;57.53;;
15905;SDS011;8051;50.820;4.884;2022-12-07T06:58:36;92.87;;;58.67;;
15905;SDS011;8051;50.820;4.884;2022-12-07T07:01:08;83.53;;;57.63;;
15905;SDS011;8051;50.820;4.884;2022-12-07T07:03:36;80.17;;;55.00;;
15905;SDS011;8051;50.820;4.884;2022-12-07T07:06:04;80.63;;;56.13;;
15905;SDS011;8051;50.820;4.884;2022-12-07T07:08:34;86.77;;;57.20;;
15905;SDS011;8051;50.820;4.884;2022-12-07T07:11:01;82.33;;;57.97;;
15905;SDS011;8051;50.820;4.884;2022-12-07T07:13:29;80.20;;;58.13;;
15905;SDS011;8051;50.820;4.884;2022-12-07T07:15:57;70.37;;;54.93;;
15905;SDS011;8051;50.820;4.884;2022-12-07T07:18:24;77.70;;;54.13;;
15905;SDS011;8051;50.820;4.884;2022-12-07T07:20:52;80.23;;;56.73;;
15905;SDS011;8051;50.820;4.884;2022-12-07T07:23:20;78.53;;;54.73;;
15905;SDS011;8051;50.820;4.884;2022-12-07T07:25:49;77.20;;;57.97;;
15905;SDS011;8051;50.820;4.884;2022-12-07T07:28:17;84.20;;;58.30;;
15905;SDS011;8051;50.820;4.884;2022-12-07T07:30:44;82.03;;;57.07;;
15905;SDS011;8051;50.820;4.884;2022-12-07T07:33:11;76.87;;;53.83;;
15905;SDS011;8051;50.820;4.884;2022-12-07T07:35:39;81.50;;;55.30;;
15905;SDS011;8051;50.820;4.884;2022-12-07T07:38:06;81.47;;;54.37;;
15905;SDS011;8051;50.820;4.884;2022-12-07T07:40:34;81.13;;;57.07;;
15905;SDS011;8051;50.820;4.884;2022-12-07T07:43:03;87.40;;;59.13;;
15905;SDS011;8051;50.820;4.884;2022-12-07T07:45:30;76.57;;;59.23;;
15905;SDS011;8051;50.820;4.884;2022-12-07T07:47:58;73.63;;;54.57;;
15905;SDS011;8051;50.820;4.884;2022-12-07T07:50:25;89.83;;;60.53;;
15905;SDS011;8051;50.820;4.884;2022-12-07T07:52:53;78.90;;;56.17;;
15905;SDS011;8051;50.820;4.884;2022-12-07T07:55:20;80.90;;;60.03;;
15905;SDS011;8051;50.820;4.884;2022-12-07T07:57:48;86.47;;;63.37;;
15905;SDS011;8051;50.820;4.884;2022-12-07T08:00:17;83.47;;;62.03;;
15905;SDS011;8051;50.820;4.884;2022-12-07T08:02:45;92.27;;;63.63;;
15905;SDS011;8051;50.820;4.884;2022-12-07T08:05:13;81.47;;;58.67;;
15905;SDS011;8051;50.820;4.884;2022-12-07T08:07:41;98.50;;;59.43;;
15905;SDS011;8051;50.820;4.884;2022-12-07T08:10:09;99.13;;;63.30;;
15905;SDS011;8051;50.820;4.884;2022-12-07T08:12:38;87.53;;;57.47;;
15905;SDS011;8051;50.820;4.884;2022-12-07T08:15:23;80.03;;;56.00;;
15905;SDS011;8051;50.820;4.884;2022-12-07T08:17:52;83.07;;;60.40;;
15905;SDS011;8051;50.820;4.884;2022-12-07T08:20:19;81.47;;;57.43;;
15905;SDS011;8051;50.820;4.884;2022-12-07T08:22:47;78.13;;;56.07;;
15905;SDS011;8051;50.820;4.884;2022-12-07T08:25:14;78.60;;;54.40;;
15905;SDS011;8051;50.820;4.884;2022-12-07T08:27:42;82.97;;;56.00;;
15905;SDS011;8051;50.820;4.884;2022-12-07T08:30:09;83.40;;;54.93;;
15905;SDS011;8051;50.820;4.884;2022-12-07T08:32:39;76.40;;;52.00;;
15905;SDS011;8051;50.820;4.884;2022-12-07T08:35:07;77.00;;;52.50;;
15905;SDS011;8051;50.820;4.884;2022-12-07T08:37:35;69.97;;;48.90;;
15905;SDS011;8051;50.820;4.884;2022-12-07T08:40:03;69.13;;;51.63;;
15905;SDS011;8051;50.820;4.884;2022-12-07T08:42:32;70.87;;;51.67;;
15905;SDS011;8051;50.820;4.884;2022-12-07T08:45:05;70.87;;;50.47;;
15905;SDS011;8051;50.820;4.884;2022-12-07T08:47:34;64.23;;;45.73;;
15905;SDS011;8051;50.820;4.884;2022-12-07T08:50:05;65.13;;;49.90;;
15905;SDS011;8051;50.820;4.884;2022-12-07T08:52:36;71.60;;;50.37;;
15905;SDS011;8051;50.820;4.884;2022-12-07T08:55:05;68.97;;;46.93;;
15905;SDS011;8051;50.820;4.884;2022-12-07T08:57:33;78.63;;;47.83;;
15905;SDS011;8051;50.820;4.884;2022-12-07T09:00:02;65.70;;;48.37;;
15905;SDS011;8051;50.820;4.884;2022-12-07T09:02:31;60.80;;;46.43;;
15905;SDS011;8051;50.820;4.884;2022-12-07T09:04:58;73.10;;;49.63;;
15905;SDS011;8051;50.820;4.884;2022-12-07T09:07:27;61.97;;;47.10;;
15905;SDS011;8051;50.820;4.884;2022-12-07T09:09:57;57.17;;;44.17;;
15905;SDS011;8051;50.820;4.884;2022-12-07T09:12:24;54.90;;;43.67;;
15905;SDS011;8051;50.820;4.884;2022-12-07T09:14:51;65.27;;;44.93;;
15905;SDS011;8051;50.820;4.884;2022-12-07T09:17:19;66.47;;;43.30;;
15905;SDS011;8051;50.820;4.884;2022-12-07T09:19:46;50.53;;;41.43;;
15905;SDS011;8051;50.820;4.884;2022-12-07T09:22:14;57.50;;;43.50;;
15905;SDS011;8051;50.820;4.884;2022-12-07T09:24:43;47.80;;;41.33;;
15905;SDS011;8051;50.820;4.884;2022-12-07T09:27:11;51.63;;;43.63;;
15905;SDS011;8051;50.820;4.884;2022-12-07T09:29:38;63.17;;;45.80;;
15905;SDS011;8051;50.820;4.884;2022-12-07T09:32:06;53.47;;;42.57;;
15905;SDS011;8051;50.820;4.884;2022-12-07T09:34:33;60.37;;;43.30;;
15905;SDS011;8051;50.820;4.884;2022-12-07T09:37:01;60.90;;;41.07;;
15905;SDS011;8051;50.820;4.884;2022-12-07T09:39:29;51.27;;;42.00;;
15905;SDS011;8051;50.820;4.884;2022-12-07T09:41:58;67.77;;;43.13;;
15905;SDS011;8051;50.820;4.884;2022-12-07T09:44:29;48.70;;;40.60;;
15905;SDS011;8051;50.820;4.884;2022-12-07T09:46:56;49.53;;;38.50;;
15905;SDS011;8051;50.820;4.884;2022-12-07T09:49:25;52.73;;;36.13;;
15905;SDS011;8051;50.820;4.884;2022-12-07T09:51:59;40.80;;;35.87;;
15905;SDS011;8051;50.820;4.884;2022-12-07T09:54:29;35.33;;;29.80;;
15905;SDS011;8051;50.820;4.884;2022-12-07T09:56:59;39.33;;;29.77;;
15905;SDS011;8051;50.820;4.884;2022-12-07T09:59:27;38.27;;;28.23;;
15905;SDS011;8051;50.820;4.884;2022-12-07T10:01:54;31.57;;;28.17;;
15905;SDS011;8051;50.820;4.884;2022-12-07T10:04:23;33.43;;;26.83;;
15905;SDS011;8051;50.820;4.884;2022-12-07T10:06:52;31.70;;;24.40;;
15905;SDS011;8051;50.820;4.884;2022-12-07T10:09:20;27.43;;;23.60;;
15905;SDS011;8051;50.820;4.884;2022-12-07T10:12:04;28.30;;;23.80;;
15905;SDS011;8051;50.820;4.884;2022-12-07T10:14:34;24.93;;;22.13;;
15905;SDS011;8051;50.820;4.884;2022-12-07T10:17:08;26.00;;;23.37;;
15905;SDS011;8051;50.820;4.884;2022-12-07T10:20:08;25.13;;;22.57;;
15905;SDS011;8051;50.820;4.884;2022-12-07T10:22:56;26.17;;;23.13;;
15905;SDS011;8051;50.820;4.884;2022-12-07T10:25:29;23.93;;;20.90;;
15905;SDS011;8051;50.820;4.884;2022-12-07T10:28:10;25.47;;;22.87;;
15905;SDS011;8051;50.820;4.884;2022-12-07T10:30:46;23.53;;;21.00;;
15905;SDS011;8051;50.820;4.884;2022-12-07T10:33:29;24.10;;;18.27;;
15905;SDS011;8051;50.820;4.884;2022-12-07T10:35:58;19.30;;;17.13;;
15905;SDS011;8051;50.820;4.884;2022-12-07T10:38:27;22.60;;;17.70;;
15905;SDS011;8051;50.820;4.884;2022-12-07T10:41:04;19.40;;;17.27;;
15905;SDS011;8051;50.820;4.884;2022-12-07T10:43:34;24.10;;;20.13;;
15905;SDS011;8051;50.820;4.884;2022-12-07T10:46:10;21.70;;;19.07;;
15905;SDS011;8051;50.820;4.884;2022-12-07T10:49:08;26.70;;;23.03;;
15905;SDS011;8051;50.820;4.884;2022-12-07T10:51:59;34.73;;;28.73;;
15905;SDS011;8051;50.820;4.884;2022-12-07T10:54:36;29.27;;;26.20;;
15905;SDS011;8051;50.820;4.884;2022-12-07T10:57:16;25.23;;;22.50;;
15905;SDS011;8051;50.820;4.884;2022-12-07T10:59:55;28.53;;;25.57;;
15905;SDS011;8051;50.820;4.884;2022-12-07T11:02:35;25.17;;;22.57;;
15905;SDS011;8051;50.820;4.884;2022-12-07T11:05:23;22.77;;;20.57;;
15905;SDS011;8051;50.820;4.884;2022-12-07T11:07:58;24.10;;;21.63;;
15905;SDS011;8051;50.820;4.884;2022-12-07T11:10:35;29.30;;;21.93;;
15905;SDS011;8051;50.820;4.884;2022-12-07T11:13:13;24.40;;;21.80;;
15905;SDS011;8051;50.820;4.884;2022-12-07T11:15:51;24.73;;;22.20;;
15905;SDS011;8051;50.820;4.884;2022-12-07T11:18:38;22.57;;;20.20;;
15905;SDS011;8051;50.820;4.884;2022-12-07T11:21:12;21.70;;;19.70;;
15905;SDS011;8051;50.820;4.884;2022-12-07T11:23:48;20.40;;;18.63;;
15905;SDS011;8051;50.820;4.884;2022-12-07T11:26:23;20.23;;;18.53;;
15905;SDS011;8051;50.820;4.884;2022-12-07T11:29:16;18.20;;;16.53;;
15905;SDS011;8051;50.820;4.884;2022-12-07T11:32:00;22.47;;;16.37;;
15905;SDS011;8051;50.820;4.884;2022-12-07T11:34:38;19.10;;;17.27;;
15905;SDS011;8051;50.820;4.884;2022-12-07T11:37:14;18.40;;;16.67;;
15905;SDS011;8051;50.820;4.884;2022-12-07T11:39:46;16.63;;;14.90;;
15905;SDS011;8051;50.820;4.884;2022-12-07T11:42:19;17.53;;;15.83;;
15905;SDS011;8051;50.820;4.884;2022-12-07T11:44:50;17.43;;;15.70;;
15905;SDS011;8051;50.820;4.884;2022-12-07T11:47:25;18.13;;;16.23;;
15905;SDS011;8051;50.820;4.884;2022-12-07T11:50:01;19.07;;;16.73;;
15905;SDS011;8051;50.820;4.884;2022-12-07T11:52:40;19.40;;;17.60;;
15905;SDS011;8051;50.820;4.884;2022-12-07T11:55:16;18.90;;;17.30;;
15905;SDS011;8051;50.820;4.884;2022-12-07T11:57:54;20.97;;;19.07;;
15905;SDS011;8051;50.820;4.884;2022-12-07T12:00:29;19.67;;;17.73;;
15905;SDS011;8051;50.820;4.884;2022-12-07T12:02:59;20.10;;;17.80;;
15905;SDS011;8051;50.820;4.884;2022-12-07T12:05:30;20.70;;;18.63;;
15905;SDS011;8051;50.820;4.884;2022-12-07T12:08:00;19.97;;;18.23;;
15905;SDS011;8051;50.820;4.884;2022-12-07T12:10:35;18.60;;;16.93;;
15905;SDS011;8051;50.820;4.884;2022-12-07T12:13:33;18.33;;;16.37;;
15905;SDS011;8051;50.820;4.884;2022-12-07T12:16:34;17.97;;;16.30;;
15905;SDS011;8051;50.820;4.884;2022-12-07T12:22:04;19.57;;;17.70;;
15905;SDS011;8051;50.820;4.884;2022-12-07T12:24:38;19.17;;;17.30;;
15905;SDS011;8051;50.820;4.884;2022-12-07T12:27:08;18.63;;;17.07;;
15905;SDS011;8051;50.820;4.884;2022-12-07T12:29:45;21.10;;;16.33;;
15905;SDS011;8051;50.820;4.884;2022-12-07T12:32:21;18.03;;;16.63;;
15905;SDS011;8051;50.820;4.884;2022-12-07T12:35:02;18.23;;;16.53;;
15905;SDS011;8051;50.820;4.884;2022-12-07T12:37:49;20.57;;;16.10;;
15905;SDS011;8051;50.820;4.884;2022-12-07T12:40:41;18.43;;;16.77;;
15905;SDS011;8051;50.820;4.884;2022-12-07T12:55:23;18.07;;;16.67;;
15905;SDS011;8051;50.820;4.884;2022-12-07T12:58:25;18.33;;;16.70;;
15905;SDS011;8051;50.820;4.884;2022-12-07T13:03:57;19.33;;;17.83;;
15905;SDS011;8051;50.820;4.884;2022-12-07T13:06:34;19.20;;;17.47;;
15905;SDS011;8051;50.820;4.884;2022-12-07T13:09:04;18.37;;;16.77;;
15905;SDS011;8051;50.820;4.884;2022-12-07T13:11:48;19.73;;;17.83;;
15905;SDS011;8051;50.820;4.884;2022-12-07T13:14:39;20.67;;;18.73;;
15905;SDS011;8051;50.820;4.884;2022-12-07T13:23:12;18.67;;;17.17;;
15905;SDS011;8051;50.820;4.884;2022-12-07T13:25:44;16.50;;;15.20;;
15905;SDS011;8051;50.820;4.884;2022-12-07T13:28:19;21.73;;;17.97;;
15905;SDS011;8051;50.820;4.884;2022-12-07T13:30:59;18.17;;;16.87;;
15905;SDS011;8051;50.820;4.884;2022-12-07T13:33:30;19.33;;;17.57;;
15905;SDS011;8051;50.820;4.884;2022-12-07T13:36:02;18.63;;;17.13;;
15905;SDS011;8051;50.820;4.884;2022-12-07T13:38:30;18.10;;;16.53;;
15905;SDS011;8051;50.820;4.884;2022-12-07T13:41:04;18.40;;;16.70;;
15905;SDS011;8051;50.820;4.884;2022-12-07T13:43:47;17.17;;;15.60;;
15905;SDS011;8051;50.820;4.884;2022-12-07T13:46:18;17.07;;;15.67;;
15905;SDS011;8051;50.820;4.884;2022-12-07T13:48:50;18.63;;;17.40;;
15905;SDS011;8051;50.820;4.884;2022-12-07T13:51:20;19.00;;;17.33;;
15905;SDS011;8051;50.820;4.884;2022-12-07T13:53:50;16.63;;;15.33;;
15905;SDS011;8051;50.820;4.884;2022-12-07T13:56:21;18.53;;;17.17;;
15905;SDS011;8051;50.820;4.884;2022-12-07T13:58:54;18.17;;;16.73;;
15905;SDS011;8051;50.820;4.884;2022-12-07T14:01:22;17.03;;;15.63;;
15905;SDS011;8051;50.820;4.884;2022-12-07T14:03:50;17.57;;;16.13;;
15905;SDS011;8051;50.820;4.884;2022-12-07T14:06:22;18.27;;;16.87;;
15905;SDS011;8051;50.820;4.884;2022-12-07T14:09:07;19.13;;;17.80;;
15905;SDS011;8051;50.820;4.884;2022-12-07T14:11:36;18.43;;;17.07;;
15905;SDS011;8051;50.820;4.884;2022-12-07T14:14:10;18.40;;;16.77;;
15905;SDS011;8051;50.820;4.884;2022-12-07T14:16:43;18.10;;;16.63;;
15905;SDS011;8051;50.820;4.884;2022-12-07T14:22:22;18.70;;;17.10;;
15905;SDS011;8051;50.820;4.884;2022-12-07T14:25:00;17.10;;;15.80;;
15905;SDS011;8051;50.820;4.884;2022-12-07T14:27:50;19.83;;;15.50;;
15905;SDS011;8051;50.820;4.884;2022-12-07T14:30:22;16.43;;;15.03;;
15905;SDS011;8051;50.820;4.884;2022-12-07T14:32:52;16.67;;;15.37;;
15905;SDS011;8051;50.820;4.884;2022-12-07T14:35:21;16.93;;;15.77;;
15905;SDS011;8051;50.820;4.884;2022-12-07T14:37:49;17.57;;;15.77;;
15905;SDS011;8051;50.820;4.884;2022-12-07T14:40:18;16.97;;;15.67;;
15905;SDS011;8051;50.820;4.884;2022-12-07T14:42:47;17.97;;;16.33;;
15905;SDS011;8051;50.820;4.884;2022-12-07T14:45:19;16.60;;;15.60;;
15905;SDS011;8051;50.820;4.884;2022-12-07T14:47:49;15.60;;;14.30;;
15905;SDS011;8051;50.820;4.884;2022-12-07T14:50:18;16.20;;;14.73;;
15905;SDS011;8051;50.820;4.884;2022-12-07T14:52:47;15.90;;;14.83;;
15905;SDS011;8051;50.820;4.884;2022-12-07T14:55:19;16.17;;;14.67;;
15905;SDS011;8051;50.820;4.884;2022-12-07T14:57:49;16.07;;;13.07;;
15905;SDS011;8051;50.820;4.884;2022-12-07T15:00:17;13.63;;;12.67;;
15905;SDS011;8051;50.820;4.884;2022-12-07T15:02:46;15.03;;;13.83;;
15905;SDS011;8051;50.820;4.884;2022-12-07T15:05:16;14.80;;;13.60;;
15905;SDS011;8051;50.820;4.884;2022-12-07T15:07:44;14.87;;;13.73;;
15905;SDS011;8051;50.820;4.884;2022-12-07T15:10:13;14.33;;;12.87;;
15905;SDS011;8051;50.820;4.884;2022-12-07T15:12:43;16.43;;;15.10;;
15905;SDS011;8051;50.820;4.884;2022-12-07T15:15:11;16.13;;;14.90;;
15905;SDS011;8051;50.820;4.884;2022-12-07T15:17:38;16.40;;;15.07;;
15905;SDS011;8051;50.820;4.884;2022-12-07T15:20:09;16.80;;;15.30;;
15905;SDS011;8051;50.820;4.884;2022-12-07T15:22:38;15.10;;;14.30;;
15905;SDS011;8051;50.820;4.884;2022-12-07T15:25:06;15.53;;;14.57;;
15905;SDS011;8051;50.820;4.884;2022-12-07T15:27:35;18.47;;;16.97;;